Tiempo atmosférico en la estación meteorológica de Cuéllar, Segovia (795 m.)



Fecha
DESCASC
Temp. máxima en grados centígrados (hora)
DESCASC
Temp. mínima en grados centígrados (hora)
DESCASC
Temp. media en grados centígrados
DESCASC
Racha de viento máxima en m/sg (hora)
DESCASC
Velocidad máxima media en intervalos de 10 minutos(hora)
DESCASC
Precipitaciones diarias en mm
DESCASC
Precipitaciones de 00:00 a 06:00 en mm
DESCASC
Precipitaciones de 06:00 a 12:00 en mm
DESCASC
Precipitaciones de 12:00 a 18:00 en mm
DESCASC
Precipitaciones de 18:00 a 24:00 en mm
DESCASC
15-07-2018 28.1 (16:50) 7.4 (06:30) 17.8 9.17 (20:30) 5.83 (19:30) 0 0 0 0 0
14-07-2018 31.5 (17:50) 10.7 (07:00) 21.1 11.94 (00:30) 8.06 (00:10) 0 0 0 0 0
13-07-2018 31.9 (18:00) 12.9 (07:00) 22.4 10.83 (23:40) 7.22 (23:50) 0 0 0 0 0
12-07-2018 30.7 (18:00) 9.1 (00:00) 19.9 9.72 (21:10) 6.67 (21:50) 0 0 0 0 0
11-07-2018 27.8 (18:40) 15.1 (00:00) 21.4 13.33 (15:00) 9.17 (13:30) 0 0 0 0 0
10-07-2018 30.7 (17:50) 12.9 (00:00) 21.8 7.22 (18:30) 4.44 (22:40) 0 0 0 0 0
09-07-2018 30.9 (17:40) 14.2 (00:00) 22.5 9.72 (20:30) 6.67 (20:30) 0 0 0 0 0
08-07-2018 30.9 (15:20) 12.4 (07:10) 21.6 10.56 (21:30) 7.22 (21:30) 1.8 0 0 0 1.8
07-07-2018 30.2 (18:20) 13.2 (00:00) 21.7 10 (22:20) 6.39 (22:00) 2.8 0 0 0 2.8
06-07-2018 29.1 (17:30) 9.5 (00:00) 19.3 7.5 (21:20) 4.72 (21:20) 0 0 0 0 0
05-07-2018 27.1 (18:10) 9 (03:20) 18.1 6.67 (15:20) 3.89 (23:00) 0 0 0 0 0
04-07-2018 25.2 (16:30) 7.4 (07:00) 16.3 11.67 (17:30) 6.11 (17:30) 0 0 0 0 0
03-07-2018 28.7 (18:10) 10.7 (05:50) 19.7 7.22 (18:00) 4.17 (15:40) 0.2 0 0 0 0.2
02-07-2018 24.9 (16:20) 8.6 (05:20) 16.8 7.22 (16:00) 3.89 (16:00) 0 0 0 0 0
01-07-2018 25.6 (17:50) 9.5 (00:00) 17.6 10 (19:00) 6.11 (19:00) 0.2 0 0 0 0.2
30-06-2018 26.5 (12:50) 14.1 (05:20) 20.3 11.39 (15:30) 6.67 (14:00) 0 0 0 0 0
29-06-2018 28.5 (13:50) 12.2 (00:00) 20.3 11.39 (01:20) 8.33 (01:50) 15.8 0.2 0 0.6 15
28-06-2018 30.6 (18:20) 12 (00:00) 21.3 9.44 (23:00) 6.94 (23:00) 0.8 0 0 0 0.8
27-06-2018 28.7 (17:10) 15 (00:00) 21.9 9.72 (18:00) 6.39 (18:00) 0 0 0 0 0
26-06-2018 34.5 (16:40) 11 (00:00) 22.8 13.61 (18:50) 8.61 (19:00) 0.4 0 0 0 0.4
25-06-2018 35.3 (18:30) 13.5 (00:00) 24.4 11.94 (20:10) 6.94 (20:00) 0 0 0 0 0
24-06-2018 34.5 (16:20) 12.3 (00:00) 23.4 6.67 (18:10) 4.44 (19:50) 0 0 0 0 0
23-06-2018 32.7 (18:10) 14 (00:00) 23.4 6.39 (02:20) 4.72 (22:30) 0 0 0 0 0
22-06-2018 31.6 (17:40) 15.2 (05:40) 23.4 9.44 (00:10) 6.67 (00:10) 0 0 0 0 0
21-06-2018 29.6 (16:30) 15.9 (00:00) 22.8 9.72 (23:59) 6.11 (23:30) 2.6 2.6 0 0 0
20-06-2018 33.5 (19:10) 12.5 (00:00) 23 5.56 (15:10) 3.61 (19:40) 0 0 0 0 0
19-06-2018 30.9 (18:30) 10.1 (00:00) 20.5 6.39 (08:10) 5 (06:20) 0 0 0 0 0
18-06-2018 26.7 (17:20) 8.7 (00:00) 17.7 11.94 (22:40) 8.61 (22:50) 0 0 0 0 0
17-06-2018 26.8 (18:40) 9.8 (00:00) 18.3 7.5 (15:10) 4.72 (16:30) 0 0 0 0 0

Gráficas

Temp. máximas Temp. mínimas Temp. medias Precipitaciones Rachas de viento máximas Velocidades máximas media en intervalos de 10 minutos

Datos horarios

Fecha y hora oficial Temperatura (ºC) Velocidad del viento (km/h) Dirección del viento Racha (km/h) Dirección de racha Precipitación (mm) Presión (hPa) Tendencia (hPa) Humedad (%)
2018-07-16 23:00:00 16.5 5 Este 8 Nordeste 0 -- -- 78
2018-07-16 22:00:00 18.9 4 Nordeste 6 Nordeste 0 -- -- 71
2018-07-16 21:00:00 25.6 3 Norte 10 Nordeste 0 -- -- 48
2018-07-16 20:00:00 27.1 4 Oeste 17 Oeste 0 -- -- 39
2018-07-16 19:00:00 25.9 3 Noroeste 10 Sudeste 0 -- -- 44
2018-07-16 18:00:00 26.9 8 Oeste 18 Oeste 0 -- -- 40
2018-07-16 17:00:00 26.3 10 Oeste 18 Oeste 0 -- -- 43
2018-07-16 16:00:00 24.3 7 Oeste 13 Noroeste 0 -- -- 50
2018-07-16 15:00:00 24.6 4 Nordeste 14 Noroeste 0 -- -- 49
2018-07-16 14:00:00 23.2 4 Oeste 15 Sudoeste 0 -- -- 57
2018-07-16 13:00:00 21.2 5 Sudeste 13 Sudeste 0 -- -- 67
2018-07-16 12:00:00 19.1 3 Sudeste 13 Sudoeste 0 -- -- 71
2018-07-16 11:00:00 16.8 7 Sudoeste 14 Oeste 0 -- -- 82
2018-07-16 10:00:00 15 0 Calma 6 Este 0 -- -- 84
2018-07-16 09:00:00 12.5 0 Calma 3 Sudoeste 0 -- -- 92
2018-07-16 08:00:00 11.8 5 Norte 7 Norte 0 -- -- 95
2018-07-16 07:00:00 11.2 5 Oeste 11 Oeste 0 -- -- 96
2018-07-16 06:00:00 11.5 6 Oeste 10 Oeste 0 -- -- 96
2018-07-16 05:00:00 11.7 0 Calma 5 Sur 0.2 -- -- 96
2018-07-16 04:00:00 13 4 Sur 22 Nordeste 1.2 -- -- 92
2018-07-16 03:00:00 14.3 4 Sudeste 14 Noroeste 0.2 -- -- 81
2018-07-16 02:00:00 15.3 7 Sudoeste 24 Oeste 0 -- -- 68
2018-07-16 01:00:00 14 7 Oeste 26 Oeste 3.8 -- -- 81
2018-07-16 00:00:00 18.2 9 Sudoeste 25 Oeste 0 -- -- 56
2018-07-15 23:00:00 17.4 9 Oeste 18 Sudoeste 0 -- -- 67
2018-07-15 22:00:00 22.1 9 Oeste 27 Oeste 0 -- -- 41
2018-07-15 21:00:00 24.3 16 Oeste 33 Oeste 0 -- -- 37
2018-07-15 20:00:00 25.9 19 Oeste 32 Oeste 0 -- -- 35
2018-07-15 19:00:00 27.4 18 Oeste 31 Oeste 0 -- -- 33
2018-07-15 18:00:00 26.4 14 Oeste 27 Oeste 0 -- -- 35
2018-07-15 17:00:00 26.9 15 Oeste 25 Sudoeste 0 -- -- 35
2018-07-15 16:00:00 26.9 14 Oeste 31 Oeste 0 -- -- 36
2018-07-15 15:00:00 27 12 Oeste 31 Sudoeste 0 -- -- 37
2018-07-15 14:00:00 26 10 Sur 22 Sur 0 -- -- 41
2018-07-15 13:00:00 24.5 10 Oeste 20 Sudoeste 0 -- -- 48
2018-07-15 12:00:00 24.2 7 Oeste 23 Oeste 0 -- -- 56
2018-07-15 11:00:00 22 12 Sudoeste 19 Sudoeste 0 -- -- 65
2018-07-15 10:00:00 20.5 4 Sudoeste 17 Sudoeste 0 -- -- 69
2018-07-15 09:00:00 17.3 5 Sudoeste 9 Sudoeste 0 -- -- 71
2018-07-15 08:00:00 11.4 0 Calma 4 Nordeste 0 -- -- 82
2018-07-15 07:00:00 7.8 3 Este 5 Este 0 -- -- 90
2018-07-15 06:00:00 7.8 3 Este 6 Este 0 -- -- 90
2018-07-15 05:00:00 8.5 2 Sudeste 4 Nordeste 0 -- -- 88
2018-07-15 04:00:00 9 4 Este 6 Este 0 -- -- 88
2018-07-15 03:00:00 10.2 0 Calma 4 Este 0 -- -- 84
2018-07-15 02:00:00 11.2 0 Calma 2 Sudeste 0 -- -- 81
2018-07-15 01:00:00 12.7 0 Calma 5 Este 0 -- -- 77
2018-07-15 00:00:00 14.5 2 Este 4 Este 0 -- -- 69
2018-07-14 23:00:00 18.8 2 Noroeste 5 Noroeste 0 -- -- 58
2018-07-14 22:00:00 23.3 4 Oeste 23 Oeste 0 -- -- 40
2018-07-14 21:00:00 27.9 12 Sudoeste 30 Sur 0 -- -- 30
2018-07-14 20:00:00 29.9 17 Sur 34 Sudoeste 0 -- -- 25
2018-07-14 19:00:00 31.1 13 Sur 34 Sur 0 -- -- 24
2018-07-14 18:00:00 31 21 Sur 40 Sur 0 -- -- 21
2018-07-14 17:00:00 30.7 21 Sur 43 Sur 0 -- -- 24
2018-07-14 16:00:00 31 14 Sudoeste 34 Sur 0 -- -- 22
2018-07-14 15:00:00 30.3 16 Sudoeste 32 Sur 0 -- -- 20
2018-07-14 14:00:00 30 10 Sur 21 Sur 0 -- -- 28
2018-07-14 13:00:00 27.9 13 Sudeste 27 Sudeste 0 -- -- 40
2018-07-14 12:00:00 27.1 6 Sudoeste 14 Oeste 0 -- -- 48
2018-07-14 11:00:00 25.4 4 Sudoeste 11 Oeste 0 -- -- 59
2018-07-14 10:00:00 22.8 2 Oeste 5 Sudeste 0 -- -- 67
2018-07-14 09:00:00 19.2 2 Este 5 Este 0 -- -- 77
2018-07-14 08:00:00 14.2 3 Este 5 Este 0 -- -- 96
2018-07-14 07:00:00 10.7 3 Este 5 Este 0 -- -- 97
2018-07-14 06:00:00 11.8 5 Este 6 Este 0 -- -- 97
2018-07-14 05:00:00 13.1 3 Nordeste 8 Este 0 -- -- 97
2018-07-14 04:00:00 13.9 4 Nordeste 9 Nordeste 0 -- -- 93
2018-07-14 03:00:00 15.7 7 Nordeste 19 Nordeste 0 -- -- 88
2018-07-14 02:00:00 18.1 15 Nordeste 31 Norte 0 -- -- 78
2018-07-14 01:00:00 19.2 19 Norte 43 Norte 0 -- -- 74
2018-07-14 00:00:00 20.6 24 Norte 39 Norte 0 -- -- 70
2018-07-13 23:00:00 18 5 Oeste 8 Oeste 0 -- -- 65
2018-07-13 22:00:00 19.6 2 Noroeste 16 Sudoeste 0 -- -- 61
2018-07-13 21:00:00 25.7 3 Sur 18 Sur 0 -- -- 42
2018-07-13 20:00:00 28.1 9 Sur 28 Sur 0 -- -- 33
2018-07-13 19:00:00 31.4 13 Sudoeste 33 Sudoeste 0 -- -- 28
2018-07-13 18:00:00 31.9 12 Sudoeste 35 Sudoeste 0 -- -- 30
2018-07-13 17:00:00 31.6 15 Sudoeste 32 Sur 0 -- -- 29
2018-07-13 16:00:00 31.1 17 Sudoeste 27 Sur 0 -- -- 31
2018-07-13 15:00:00 29.7 14 Noroeste 26 Oeste 0 -- -- 38
2018-07-13 14:00:00 29.7 10 Oeste 23 Sudoeste 0 -- -- 34
2018-07-13 13:00:00 29.2 11 Sudoeste 19 Oeste 0 -- -- 39
2018-07-13 12:00:00 28.4 6 Sudeste 12 Sudoeste 0 -- -- 42
2018-07-13 11:00:00 26.8 4 Sudeste 8 Sudeste 0 -- -- 49
2018-07-13 10:00:00 23.8 4 Sur 8 Este 0 -- -- 63
2018-07-13 09:00:00 19.5 2 Sur 6 Sudeste 0 -- -- 76
2018-07-13 08:00:00 13.9 6 Sudeste 9 Este 0 -- -- 92
2018-07-13 07:00:00 12.9 8 Este 12 Este 0 -- -- 93
2018-07-13 06:00:00 14.5 8 Nordeste 13 Este 0 -- -- 88
2018-07-13 05:00:00 15.3 6 Este 12 Este 0 -- -- 87
2018-07-13 04:00:00 16.1 8 Este 14 Nordeste 0 -- -- 83
2018-07-13 03:00:00 18.3 13 Nordeste 25 Nordeste 0 -- -- 74
2018-07-13 02:00:00 19.4 19 Nordeste 29 Nordeste 0 -- -- 70
2018-07-13 01:00:00 19.4 17 Nordeste 27 Nordeste 0 -- -- 70
2018-07-13 00:00:00 20.7 18 Nordeste 27 Nordeste 0 -- -- 63
2018-07-12 23:00:00 22 20 Norte 31 Norte 0 -- -- 58
2018-07-12 22:00:00 23.1 20 Nordeste 35 Norte 0 -- -- 54
2018-07-12 21:00:00 26.1 23 Nordeste 35 Nordeste 0 -- -- 45
2018-07-12 20:00:00 28 12 Norte 19 Norte 0 -- -- 34
2018-07-12 19:00:00 29.3 10 Nordeste 20 Norte 0 -- -- 35
2018-07-12 18:00:00 30.7 7 Norte 17 Oeste 0 -- -- 30
2018-07-12 17:00:00 28.6 9 Noroeste 19 Norte 0 -- -- 33
2018-07-12 16:00:00 28.6 9 Norte 21 Noroeste 0 -- -- 35
2018-07-12 15:00:00 27.4 5 Sudeste 18 Noroeste 0 -- -- 39
2018-07-12 14:00:00 27.2 9 Norte 18 Norte 0 -- -- 42
2018-07-12 13:00:00 26.8 6 Este 14 Este 0 -- -- 43
2018-07-12 12:00:00 25.5 4 Oeste 10 Norte 0 -- -- 48
2018-07-12 11:00:00 22.4 5 Sudeste 10 Sudeste 0 -- -- 62
2018-07-12 10:00:00 19.6 6 Este 15 Este 0 -- -- 69
2018-07-12 09:00:00 16.1 5 Sudeste 8 Sudeste 0 -- -- 84
2018-07-12 08:00:00 12.2 2 Este 4 Sur 0 -- -- 95
2018-07-12 07:00:00 9.6 2 Este 4 Sudeste 0 -- -- 96
2018-07-12 06:00:00 12.7 4 Este 14 Norte 0 -- -- 92
2018-07-12 05:00:00 12.8 3 Este 11 Noroeste 0 -- -- 95
2018-07-12 04:00:00 12 3 Nordeste 10 Nordeste 0 -- -- 93
2018-07-12 03:00:00 13.3 11 Este 17 Este 0 -- -- 88
2018-07-12 02:00:00 14.9 8 Este 19 Norte 0 -- -- 81
2018-07-12 01:00:00 16.6 14 Norte 19 Norte 0 -- -- 73
2018-07-12 00:00:00 16.9 10 Nordeste 23 Norte 0 -- -- 67
2018-07-11 23:00:00 19 15 Norte 22 Norte 0 -- -- 57
2018-07-11 22:00:00 19.8 9 Norte 17 Norte 0 -- -- 56
2018-07-11 21:00:00 24 13 Norte 24 Norte 0 -- -- 43
2018-07-11 20:00:00 26.8 12 Norte 19 Norte 0 -- -- 38
2018-07-11 19:00:00 27.8 11 Nordeste 22 Nordeste 0 -- -- 37
2018-07-11 18:00:00 27.2 14 Nordeste 32 Nordeste 0 -- -- 38
2018-07-11 17:00:00 26.7 19 Nordeste 39 Nordeste 0 -- -- 40
2018-07-11 16:00:00 25.9 27 Nordeste 45 Nordeste 0 -- -- 43
2018-07-11 15:00:00 24.4 33 Nordeste 48 Norte 0 -- -- 46
2018-07-11 14:00:00 23.6 30 Norte 45 Noroeste 0 -- -- 52
2018-07-11 13:00:00 23.7 29 Norte 40 Norte 0 -- -- 56
2018-07-11 12:00:00 23.3 23 Norte 35 Noroeste 0 -- -- 59
2018-07-11 11:00:00 22.6 19 Noroeste 27 Oeste 0 -- -- 60
2018-07-11 10:00:00 20.8 7 Oeste 27 Este 0 -- -- 67
2018-07-11 09:00:00 19.9 15 Este 23 Este 0 -- -- 70
2018-07-11 08:00:00 17.3 5 Sudeste 21 Norte 0 -- -- 77
2018-07-11 07:00:00 15.2 12 Nordeste 24 Norte 0 -- -- 82
2018-07-11 06:00:00 15.9 20 Norte 25 Nordeste 0 -- -- 79
2018-07-11 05:00:00 16.3 7 Este 15 Nordeste 0 -- -- 77
2018-07-11 04:00:00 15.8 5 Este 13 Este 0 -- -- 81
2018-07-11 03:00:00 15.5 10 Este 14 Este 0 -- -- 84
2018-07-11 02:00:00 16.1 4 Nordeste 10 Nordeste 0 -- -- 79
2018-07-11 01:00:00 15.9 5 Nordeste 15 Este 0 -- -- 78
2018-07-11 00:00:00 17.3 8 Nordeste 16 Nordeste 0 -- -- 72
2018-07-10 23:00:00 19.9 12 Este 23 Nordeste 0 -- -- 61
2018-07-10 22:00:00 22.1 14 Nordeste 20 Norte 0 -- -- 49
2018-07-10 21:00:00 27.3 13 Norte 19 Norte 0 -- -- 39
2018-07-10 20:00:00 29.4 10 Norte 22 Noroeste 0 -- -- 35
2018-07-10 19:00:00 30.1 13 Norte 26 Noroeste 0 -- -- 34
2018-07-10 18:00:00 29.9 14 Noroeste 26 Noroeste 0 -- -- 35
2018-07-10 17:00:00 29.9 12 Noroeste 26 Oeste 0 -- -- 36
2018-07-10 16:00:00 30.1 11 Norte 24 Noroeste 0 -- -- 38
2018-07-10 15:00:00 29.2 10 Norte 19 Norte 0 -- -- 39
2018-07-10 14:00:00 28 9 Noroeste 18 Noroeste 0 -- -- 45
2018-07-10 13:00:00 28.1 10 Nordeste 23 Noroeste 0 -- -- 40
2018-07-10 12:00:00 27.2 7 Nordeste 15 Este 0 -- -- 38
2018-07-10 11:00:00 24.7 8 Este 15 Nordeste 0 -- -- 52
2018-07-10 10:00:00 22.2 6 Este 16 Este 0 -- -- 62
2018-07-10 09:00:00 18 7 Sudeste 11 Sudeste 0 -- -- 79
2018-07-10 08:00:00 14.7 5 Sudeste 13 Este 0 -- -- 86
2018-07-10 07:00:00 13.3 5 Este 13 Este 0 -- -- 89
2018-07-10 06:00:00 13.7 6 Este 16 Este 0 -- -- 89
2018-07-10 05:00:00 13.3 5 Este 14 Este 0 -- -- 91
2018-07-10 04:00:00 14.8 7 Este 16 Norte 0 -- -- 85
2018-07-10 03:00:00 14.5 10 Nordeste 14 Nordeste 0 -- -- 87
2018-07-10 02:00:00 15.3 6 Este 14 Sudeste 0 -- -- 82
2018-07-10 01:00:00 16.8 9 Este 18 Nordeste 0 -- -- 79
2018-07-10 00:00:00 19.7 12 Nordeste 23 Nordeste 0 -- -- 68
2018-07-09 23:00:00 20.7 12 Nordeste 22 Nordeste 0 -- -- 60
2018-07-09 22:00:00 23 17 Nordeste 28 Nordeste 0 -- -- 52
2018-07-09 21:00:00 26.5 18 Nordeste 35 Nordeste 0 -- -- 44
2018-07-09 20:00:00 28.6 20 Norte 31 Norte 0 -- -- 40
2018-07-09 19:00:00 29.8 16 Norte 25 Noroeste 0 -- -- 37
2018-07-09 18:00:00 29.9 18 Norte 29 Norte 0 -- -- 37
2018-07-09 17:00:00 29.9 18 Norte 31 Norte 0 -- -- 42
2018-07-09 16:00:00 30.8 6 Norte 27 Noroeste 0 -- -- 34
2018-07-09 15:00:00 30.1 8 Nordeste 23 Nordeste 0 -- -- 37
2018-07-09 14:00:00 28.9 9 Nordeste 25 Este 0 -- -- 44
2018-07-09 13:00:00 27.9 13 Nordeste 27 Nordeste 0 -- -- 48
2018-07-09 12:00:00 27.1 8 Nordeste 19 Este 0 -- -- 49
2018-07-09 11:00:00 24 5 Sudeste 14 Este 0 -- -- 64
2018-07-09 10:00:00 21.2 9 Este 14 Este 0 -- -- 67
2018-07-09 09:00:00 18 10 Nordeste 16 Nordeste 0 -- -- 79
2018-07-09 08:00:00 15.3 7 Este 12 Este 0 -- -- 89
2018-07-09 07:00:00 14.2 6 Este 12 Este 0 -- -- 91
2018-07-09 06:00:00 14.6 5 Este 14 Este 0 -- -- 88
2018-07-09 05:00:00 15.1 7 Este 26 Norte 0 -- -- 87
2018-07-09 04:00:00 16.2 18 Norte 25 Norte 0 -- -- 82
2018-07-09 03:00:00 15.6 9 Norte 16 Norte 0 -- -- 85
2018-07-09 02:00:00 16.3 8 Nordeste 18 Nordeste 0 -- -- 85
2018-07-09 01:00:00 17.4 16 Nordeste 22 Nordeste 0 -- -- 85
2018-07-09 00:00:00 17.3 10 Este 34 Nordeste 0 -- -- 86
2018-07-08 23:00:00 18 19 Nordeste 32 Nordeste 1.8 -- -- 84
2018-07-08 22:00:00 21.2 24 Nordeste 38 Nordeste 0 -- -- 65
2018-07-08 21:00:00 24 18 Nordeste 32 Norte 0 -- -- 53
2018-07-08 20:00:00 26.1 11 Este 26 Este 0 -- -- 52
2018-07-08 19:00:00 24.4 18 Este 37 Este 0 -- -- 52
2018-07-08 18:00:00 28 12 Sudeste 35 Sudeste 0 -- -- 40
2018-07-08 17:00:00 29.7 6 Norte 22 Oeste 0 -- -- 34
2018-07-08 16:00:00 29.9 7 Oeste 30 Noroeste 0 -- -- 34
2018-07-08 15:00:00 30.4 8 Noroeste 17 Noroeste 0 -- -- 35
2018-07-08 14:00:00 30.1 4 Oeste 14 Oeste 0 -- -- 40
2018-07-08 13:00:00 28.5 6 Sudoeste 11 Oeste 0 -- -- 43
2018-07-08 12:00:00 28.1 3 Sudeste 11 Este 0 -- -- 46
2018-07-08 11:00:00 25 7 Sudeste 15 Este 0 -- -- 61
2018-07-08 10:00:00 22.8 9 Este 14 Nordeste 0 -- -- 69
2018-07-08 09:00:00 19.8 11 Nordeste 15 Nordeste 0 -- -- 79
2018-07-08 08:00:00 15.7 3 Este 6 Este 0 -- -- 87
2018-07-08 07:00:00 12.7 6 Este 15 Este 0 -- -- 94
2018-07-08 06:00:00 13.9 7 Este 13 Nordeste 0 -- -- 92
2018-07-08 05:00:00 13.3 2 Noroeste 5 Sudoeste 0 -- -- 95
2018-07-08 04:00:00 14.5 0 Calma 14 Este 0 -- -- 92
2018-07-08 03:00:00 15.3 9 Este 18 Nordeste 0 -- -- 91
2018-07-08 02:00:00 16.7 14 Nordeste 22 Norte 0 -- -- 89
2018-07-08 01:00:00 16.6 10 Nordeste 20 Nordeste 0 -- -- 92
2018-07-08 00:00:00 17 9 Este 27 Nordeste 0 -- -- 90
2018-07-07 23:00:00 17.9 17 Nordeste 36 Norte 0 -- -- 90
2018-07-07 22:00:00 18.5 23 Norte 31 Norte 2.8 -- -- 89
2018-07-07 21:00:00 23.8 14 Norte 19 Norte 0 -- -- 60
2018-07-07 20:00:00 25.9 8 Noroeste 21 Oeste 0 -- -- 50
2018-07-07 19:00:00 28.9 8 Sudoeste 32 Sur 0 -- -- 36
2018-07-07 18:00:00 28.6 12 Noroeste 22 Noroeste 0 -- -- 37
2018-07-07 17:00:00 29.6 11 Noroeste 21 Noroeste 0 -- -- 41
2018-07-07 16:00:00 28.1 13 Oeste 19 Oeste 0 -- -- 39
2018-07-07 15:00:00 28.8 12 Sudoeste 35 Sudoeste 0 -- -- 37
2018-07-07 14:00:00 28.8 8 Sur 21 Sudoeste 0 -- -- 39
2018-07-07 13:00:00 28.6 5 Sudoeste 15 Sudoeste 0 -- -- 38
2018-07-07 12:00:00 26.5 4 Noroeste 11 Oeste 0 -- -- 48
2018-07-07 11:00:00 26.1 2 Nordeste 6 Oeste 0 -- -- 47
2018-07-07 10:00:00 22.7 0 Calma 9 Este 0 -- -- 57
2018-07-07 09:00:00 18.2 5 Este 9 Este 0 -- -- 76
2018-07-07 08:00:00 15.4 3 Este 9 Este 0 -- -- 89
2018-07-07 07:00:00 13.2 3 Este 10 Este 0 -- -- 93
2018-07-07 06:00:00 14.1 7 Este 16 Nordeste 0 -- -- 90
2018-07-07 05:00:00 15 9 Nordeste 24 Nordeste 0 -- -- 88
2018-07-07 04:00:00 16 20 Nordeste 28 Norte 0 -- -- 86
2018-07-07 03:00:00 17.3 21 Norte 30 Norte 0 -- -- 77
2018-07-07 02:00:00 17.6 19 Norte 27 Norte 0 -- -- 75
2018-07-07 01:00:00 18.7 17 Norte 24 Nordeste 0 -- -- 69
2018-07-07 00:00:00 20 4 Noroeste 9 Noroeste 0 -- -- 66
2018-07-06 23:00:00 19.9 8 Norte 14 Nordeste 0 -- -- 64
2018-07-06 22:00:00 22.2 5 Nordeste 27 Sudeste 0 -- -- 50
2018-07-06 21:00:00 25 4 Sur 8 Sur 0 -- -- 51
2018-07-06 20:00:00 27.2 4 Nordeste 13 Nordeste 0 -- -- 47
2018-07-06 19:00:00 28.6 5 Sur 12 Este 0 -- -- 32
2018-07-06 18:00:00 27.3 5 Este 21 Nordeste 0 -- -- 39
2018-07-06 17:00:00 28 6 Noroeste 13 Norte 0 -- -- 36
2018-07-06 16:00:00 28.1 4 Sudoeste 22 Este 0 -- -- 34
2018-07-06 15:00:00 27.5 6 Sudeste 19 Este 0 -- -- 37
2018-07-06 14:00:00 26.8 11 Nordeste 21 Nordeste 0 -- -- 41
2018-07-06 13:00:00 27.3 9 Nordeste 20 Este 0 -- -- 39
2018-07-06 12:00:00 25.4 9 Este 19 Nordeste 0 -- -- 42
2018-07-06 11:00:00 23.4 5 Este 14 Este 0 -- -- 54
2018-07-06 10:00:00 20.3 7 Este 14 Nordeste 0 -- -- 64
2018-07-06 09:00:00 16.2 6 Este 9 Este 0 -- -- 80
2018-07-06 08:00:00 12.3 5 Este 8 Este 0 -- -- 91
2018-07-06 07:00:00 9.5 5 Este 10 Este 0 -- -- 96
2018-07-06 06:00:00 11 6 Este 14 Nordeste 0 -- -- 91
2018-07-06 05:00:00 11.3 7 Este 13 Nordeste 0 -- -- 94
2018-07-06 04:00:00 12.9 5 Este 16 Nordeste 0 -- -- 89
2018-07-06 03:00:00 12.5 8 Este 14 Este 0 -- -- 88
2018-07-06 02:00:00 13.3 3 Este 13 Este 0 -- -- 82
2018-07-06 01:00:00 14.3 5 Este 19 Nordeste 0 -- -- 77
2018-07-06 00:00:00 13.9 7 Este 15 Norte 0 -- -- 76
2018-07-05 23:00:00 16.5 14 Norte 16 Norte 0 -- -- 62
2018-07-05 22:00:00 16.2 8 Norte 10 Norte 0 -- -- 67
2018-07-05 21:00:00 23.7 6 Nordeste 11 Norte 0 -- -- 48
2018-07-05 20:00:00 22.1 7 Norte 13 Norte 0 -- -- 48
2018-07-05 19:00:00 23.1 8 Norte 19 Noroeste 0 -- -- 43
2018-07-05 18:00:00 26.1 6 Norte 18 Noroeste 0 -- -- 35
2018-07-05 17:00:00 25.8 8 Oeste 18 Noroeste 0 -- -- 40
2018-07-05 16:00:00 24.2 8 Noroeste 24 Noroeste 0 -- -- 41
2018-07-05 15:00:00 24.5 5 Sudoeste 17 Norte 0 -- -- 43
2018-07-05 14:00:00 22.9 6 Norte 13 Noroeste 0 -- -- 45
2018-07-05 13:00:00 22.5 4 Noroeste 17 Norte 0 -- -- 51
2018-07-05 12:00:00 19.1 9 Norte 16 Nordeste 0 -- -- 61
2018-07-05 11:00:00 19.5 4 Noroeste 15 Norte 0 -- -- 67
2018-07-05 10:00:00 18.2 5 Norte 11 Nordeste 0 -- -- 70
2018-07-05 09:00:00 15.9 3 Este 9 Noroeste 0 -- -- 81
2018-07-05 08:00:00 13.1 4 Sur 6 Sur 0 -- -- 89
2018-07-05 07:00:00 12.1 4 Este 6 Sudeste 0 -- -- 94
2018-07-05 06:00:00 11.2 0 Calma 3 Este 0 -- -- 95
2018-07-05 05:00:00 10.4 3 Este 4 Oeste 0 -- -- 94
2018-07-05 04:00:00 10.2 3 Noroeste 5 Oeste 0 -- -- 95
2018-07-05 03:00:00 9.5 0 Calma 6 Sudoeste 0 -- -- 91
2018-07-05 02:00:00 11.9 4 Oeste 9 Oeste 0 -- -- 80
2018-07-05 01:00:00 10.7 0 Calma 5 Sudoeste 0 -- -- 88
2018-07-05 00:00:00 11.8 0 Calma 4 Oeste 0 -- -- 82
2018-07-04 23:00:00 14.2 2 Oeste 22 Oeste 0 -- -- 71
2018-07-04 22:00:00 18.9 10 Oeste 28 Oeste 0 -- -- 51
2018-07-04 21:00:00 21.7 18 Oeste 32 Oeste 0 -- -- 43
2018-07-04 20:00:00 23.5 18 Oeste 35 Oeste 0 -- -- 38
2018-07-04 19:00:00 24.3 18 Oeste 35 Oeste 0 -- -- 35
2018-07-04 18:00:00 24.5 22 Oeste 42 Sudoeste 0 -- -- 35
2018-07-04 17:00:00 24.3 20 Oeste 39 Oeste 0 -- -- 39
2018-07-04 16:00:00 24.8 19 Oeste 40 Oeste 0 -- -- 46
2018-07-04 15:00:00 24.2 15 Oeste 37 Oeste 0 -- -- 47
2018-07-04 14:00:00 23.3 17 Oeste 31 Oeste 0 -- -- 54
2018-07-04 13:00:00 22.3 14 Oeste 30 Oeste 0 -- -- 59
2018-07-04 12:00:00 21.8 14 Oeste 35 Oeste 0 -- -- 61
2018-07-04 11:00:00 20.1 9 Sudoeste 18 Sur 0 -- -- 67
2018-07-04 10:00:00 17.9 6 Sudoeste 13 Sudoeste 0 -- -- 76
2018-07-04 09:00:00 17 0 Calma 6 Este 0 -- -- 75
2018-07-04 08:00:00 9.9 4 Este 6 Este 0 -- -- 95
2018-07-04 07:00:00 7.4 2 Sudeste 3 Este 0 -- -- 96
2018-07-04 06:00:00 7.7 2 Sudeste 4 Este 0 -- -- 95
2018-07-04 05:00:00 8.5 2 Sudeste 4 Oeste 0 -- -- 93
2018-07-04 04:00:00 9.7 0 Calma 5 Nordeste 0 -- -- 92
2018-07-04 03:00:00 10.4 4 Nordeste 9 Este 0 -- -- 89
2018-07-04 02:00:00 11.1 3 Este 10 Este 0 -- -- 89
2018-07-04 01:00:00 12.4 3 Sudoeste 7 Sur 0 -- -- 85
2018-07-04 00:00:00 13.6 3 Este 4 Este 0 -- -- 82
2018-07-03 23:00:00 15.1 0 Calma 5 Noroeste 0 -- -- 76
2018-07-03 22:00:00 20.2 3 Noroeste 14 Oeste 0 -- -- 49
2018-07-03 21:00:00 25.9 9 Oeste 21 Oeste 0 -- -- 34
2018-07-03 20:00:00 27.3 13 Oeste 24 Oeste 0 -- -- 32
2018-07-03 19:00:00 28.4 11 Sudoeste 23 Oeste 0.2 -- -- 30
2018-07-03 18:00:00 28.1 10 Sudoeste 26 Oeste 0 -- -- 34
2018-07-03 17:00:00 27.9 6 Nordeste 21 Oeste 0 -- -- 39
2018-07-03 16:00:00 26.3 9 Oeste 23 Sudoeste 0 -- -- 40
2018-07-03 15:00:00 25.7 8 Oeste 25 Sur 0 -- -- 42
2018-07-03 14:00:00 24.5 5 Sudoeste 15 Sur 0 -- -- 47
2018-07-03 13:00:00 23.6 7 Oeste 15 Sudoeste 0 -- -- 56
2018-07-03 12:00:00 21 7 Sudoeste 13 Oeste 0 -- -- 63
2018-07-03 11:00:00 20.7 5 Noroeste 9 Noroeste 0 -- -- 66
2018-07-03 10:00:00 20.2 2 Nordeste 5 Este 0 -- -- 70
2018-07-03 09:00:00 15.4 0 Calma 6 Sudeste 0 -- -- 92
2018-07-03 08:00:00 12.2 5 Sudeste 8 Sudeste 0 -- -- 97
2018-07-03 07:00:00 12.2 3 Sudeste 5 Sudeste 0 -- -- 98
2018-07-03 06:00:00 10.7 2 Este 6 Nordeste 0 -- -- 98
2018-07-03 05:00:00 11.6 5 Este 9 Este 0 -- -- 97
2018-07-03 04:00:00 11.5 2 Sudoeste 4 Oeste 0 -- -- 96
2018-07-03 03:00:00 11.8 0 Calma 5 Sudeste 0 -- -- 94
2018-07-03 02:00:00 13.1 3 Noroeste 5 Sudeste 0 -- -- 93
2018-07-03 01:00:00 14.8 3 Sudoeste 8 Noroeste 0 -- -- 83
2018-07-03 00:00:00 16.5 2 Oeste 8 Oeste 0 -- -- 77
2018-07-02 23:00:00 15.8 2 Noroeste 8 Oeste 0 -- -- 79
2018-07-02 22:00:00 18.4 5 Oeste 15 Oeste 0 -- -- 69
2018-07-02 21:00:00 21.3 9 Oeste 23 Oeste 0 -- -- 56
2018-07-02 20:00:00 23.9 13 Oeste 25 Noroeste 0 -- -- 48
2018-07-02 19:00:00 23.4 13 Oeste 24 Sudoeste 0 -- -- 51
2018-07-02 18:00:00 23.6 14 Oeste 24 Sudoeste 0 -- -- 48
2018-07-02 17:00:00 23.4 10 Oeste 23 Oeste 0 -- -- 47
2018-07-02 16:00:00 24.3 14 Oeste 26 Sudoeste 0 -- -- 47
2018-07-02 15:00:00 23.4 12 Oeste 22 Oeste 0 -- -- 48
2018-07-02 14:00:00 23.4 7 Sur 21 Sudoeste 0 -- -- 49
2018-07-02 13:00:00 22.1 5 Sudoeste 23 Sudoeste 0 -- -- 52
2018-07-02 12:00:00 20.4 8 Oeste 15 Oeste 0 -- -- 63
2018-07-02 11:00:00 19 8 Oeste 14 Oeste 0 -- -- 69
2018-07-02 10:00:00 20.3 2 Sur 6 Este 0 -- -- 66
2018-07-02 09:00:00 14.5 2 Este 5 Nordeste 0 -- -- 88
2018-07-02 08:00:00 11.9 2 Sudeste 6 Este 0 -- -- 97
2018-07-02 07:00:00 9.1 3 Este 7 Este 0 -- -- 99
2018-07-02 06:00:00 8.9 6 Este 10 Este 0 -- -- 98
2018-07-02 05:00:00 9.2 3 Este 5 Este 0 -- -- 98
2018-07-02 04:00:00 9.8 3 Nordeste 6 Este 0 -- -- 97
2018-07-02 03:00:00 10.9 3 Sudeste 5 Sudeste 0 -- -- 97
2018-07-02 02:00:00 11.3 0 Calma 8 Este 0 -- -- 95
2018-07-02 01:00:00 12.8 2 Nordeste 10 Este 0 -- -- 92
2018-07-02 00:00:00 14.9 2 Nordeste 13 Noroeste 0 -- -- 84
2018-07-01 23:00:00 14.4 2 Sudeste 10 Oeste 0 -- -- 85
2018-07-01 22:00:00 17.7 8 Noroeste 21 Sudoeste 0.2 -- -- 69
2018-07-01 21:00:00 20.5 5 Oeste 10 Oeste 0 -- -- 61
2018-07-01 20:00:00 20.8 10 Oeste 30 Oeste 0 -- -- 58
2018-07-01 19:00:00 22.1 22 Oeste 36 Oeste 0 -- -- 53
2018-07-01 18:00:00 24.9 15 Oeste 28 Oeste 0 -- -- 44
2018-07-01 17:00:00 24 16 Oeste 31 Oeste 0 -- -- 48
2018-07-01 16:00:00 25.4 7 Oeste 22 Oeste 0 -- -- 45
2018-07-01 15:00:00 24.8 11 Sudoeste 24 Sudoeste 0 -- -- 47
2018-07-01 14:00:00 24 11 Sudoeste 22 Noroeste 0 -- -- 46
2018-07-01 13:00:00 22.3 11 Sudoeste 27 Sudoeste 0 -- -- 54
2018-07-01 12:00:00 21.8 14 Sudoeste 30 Sudoeste 0 -- -- 56
2018-07-01 11:00:00 21.3 12 Sudoeste 26 Sudoeste 0 -- -- 59
2018-07-01 10:00:00 20.7 7 Sudoeste 14 Sudoeste 0 -- -- 60
2018-07-01 09:00:00 18.5 3 Sudeste 4 Este 0 -- -- 75
2018-07-01 08:00:00 12.4 3 Sudeste 4 Este 0 -- -- 96
2018-07-01 07:00:00 10.3 0 Calma 3 Sudeste 0 -- -- 99
2018-07-01 06:00:00 10.9 0 Calma 5 Sudeste 0 -- -- 98
2018-07-01 05:00:00 11.1 2 Este 4 Sur 0 -- -- 96
2018-07-01 04:00:00 12.4 3 Sudeste 5 Este 0 -- -- 97
2018-07-01 03:00:00 11.8 4 Este 10 Nordeste 0 -- -- 96
2018-07-01 02:00:00 12.4 5 Este 10 Este 0 -- -- 95
2018-07-01 01:00:00 13.2 3 Nordeste 7 Nordeste 0 -- -- 93
2018-07-01 00:00:00 15.8 2 Noroeste 9 Oeste 0 -- -- 83
2018-06-30 23:00:00 18.5 7 Oeste 15 Sudoeste 0 -- -- 69
2018-06-30 22:00:00 20 13 Noroeste 25 Oeste 0 -- -- 63
2018-06-30 21:00:00 21.6 5 Este 12 Nordeste 0 -- -- 70
2018-06-30 20:00:00 22.6 6 Este 15 Norte 0 -- -- 61
2018-06-30 19:00:00 25 4 Nordeste 13 Oeste 0 -- -- 47
2018-06-30 18:00:00 24.8 9 Oeste 25 Oeste 0 -- -- 46
2018-06-30 17:00:00 23.8 13 Oeste 30 Oeste 0 -- -- 52
2018-06-30 16:00:00 21.4 18 Oeste 41 Oeste 0 -- -- 57
2018-06-30 15:00:00 25.3 20 Sudoeste 38 Sur 0 -- -- 47
2018-06-30 14:00:00 25.2 24 Sur 38 Sur 0 -- -- 47
2018-06-30 13:00:00 25 16 Sudoeste 31 Sur 0 -- -- 48
2018-06-30 12:00:00 25.2 10 Sudoeste 26 Sur 0 -- -- 52
2018-06-30 11:00:00 24.9 12 Sur 24 Sur 0 -- -- 51
2018-06-30 10:00:00 23.1 10 Sudeste 18 Sur 0 -- -- 65
2018-06-30 09:00:00 21.7 0 Calma 9 Este 0 -- -- 72
2018-06-30 08:00:00 17 4 Nordeste 8 Este 0 -- -- 93
2018-06-30 07:00:00 14.9 3 Sudeste 14 Nordeste 0 -- -- 95
2018-06-30 06:00:00 15.6 9 Nordeste 12 Nordeste 0 -- -- 96
2018-06-30 05:00:00 14.4 5 Este 10 Nordeste 0 -- -- 94
2018-06-30 04:00:00 15.5 7 Nordeste 15 Nordeste 0 -- -- 92
2018-06-30 03:00:00 16.7 12 Este 20 Nordeste 0 -- -- 88
2018-06-30 02:00:00 16.3 9 Este 18 Nordeste 0 -- -- 92
2018-06-30 01:00:00 16.8 10 Nordeste 19 Nordeste 0 -- -- 92
2018-06-30 00:00:00 17 13 Nordeste 19 Nordeste 0 -- -- 93
2018-06-29 23:00:00 16.8 7 Nordeste 14 Este 0 -- -- 93
2018-06-29 22:00:00 17.4 10 Nordeste 18 Nordeste 0 -- -- 91
2018-06-29 21:00:00 18.5 17 Nordeste 31 Nordeste 1.2 -- -- 83
2018-06-29 20:00:00 18.6 8 Sudeste 28 Sur 13.4 -- -- 78
2018-06-29 19:00:00 24.5 6 Norte 21 Norte 0.4 -- -- 60
2018-06-29 18:00:00 24.2 5 Oeste 16 Noroeste 0 -- -- 63
2018-06-29 17:00:00 22 6 Norte 28 Sudeste 0.6 -- -- 79
2018-06-29 16:00:00 27.8 10 Oeste 24 Sudoeste 0 -- -- 39
2018-06-29 15:00:00 26.1 10 Oeste 35 Sudoeste 0 -- -- 41
2018-06-29 14:00:00 27.6 9 Sur 18 Sur 0 -- -- 37
2018-06-29 13:00:00 27.4 8 Sur 21 Sur 0 -- -- 38
2018-06-29 12:00:00 26.4 7 Sur 14 Sur 0 -- -- 48
2018-06-29 11:00:00 25.3 4 Sur 13 Sur 0 -- -- 52
2018-06-29 10:00:00 23.9 2 Nordeste 13 Este 0 -- -- 59
2018-06-29 09:00:00 19 9 Este 12 Este 0 -- -- 74
2018-06-29 08:00:00 15.3 8 Este 11 Este 0 -- -- 88
2018-06-29 07:00:00 12.2 6 Nordeste 10 Este 0 -- -- 96
2018-06-29 06:00:00 12.9 7 Este 15 Este 0 -- -- 94
2018-06-29 05:00:00 14 10 Este 24 Nordeste 0 -- -- 92
2018-06-29 04:00:00 14.7 13 Este 29 Nordeste 0 -- -- 91
2018-06-29 03:00:00 15.7 21 Norte 36 Norte 0 -- -- 89
2018-06-29 02:00:00 16.2 24 Norte 41 Norte 0 -- -- 89
2018-06-29 01:00:00 17 27 Noroeste 37 Noroeste 0.2 -- -- 89
2018-06-29 00:00:00 17.4 11 Norte 34 Norte 0.8 -- -- 86
2018-06-28 23:00:00 20.3 25 Norte 34 Norte 0 -- -- 69
2018-06-28 22:00:00 21.7 18 Nordeste 27 Nordeste 0 -- -- 68
2018-06-28 21:00:00 23.9 15 Norte 27 Norte 0 -- -- 61
2018-06-28 20:00:00 27.8 9 Noroeste 13 Noroeste 0 -- -- 38
2018-06-28 19:00:00 30.3 5 Norte 21 Norte 0 -- -- 31
2018-06-28 18:00:00 29.9 8 Este 18 Nordeste 0 -- -- 35
2018-06-28 17:00:00 28.7 5 Noroeste 18 Sudoeste 0 -- -- 35
2018-06-28 16:00:00 27.8 6 Noroeste 20 Oeste 0 -- -- 39
2018-06-28 15:00:00 27.4 6 Noroeste 17 Noroeste 0 -- -- 42
2018-06-28 14:00:00 27.8 5 Noroeste 15 Oeste 0 -- -- 48
2018-06-28 13:00:00 26.9 5 Noroeste 13 Noroeste 0 -- -- 46
2018-06-28 12:00:00 25.6 5 Norte 11 Oeste 0 -- -- 54
2018-06-28 11:00:00 23.2 5 Noroeste 9 Norte 0 -- -- 56
2018-06-28 10:00:00 21.8 2 Norte 6 Este 0 -- -- 63
2018-06-28 09:00:00 18.4 0 Calma 5 Este 0 -- -- 79
2018-06-28 08:00:00 13.2 3 Este 5 Este 0 -- -- 99
2018-06-28 07:00:00 12.4 0 Calma 3 Este 0 -- -- 99
2018-06-28 06:00:00 12.8 2 Sudoeste 3 Sudoeste 0 -- -- 99
2018-06-28 05:00:00 12.3 3 Este 8 Este 0 -- -- 99
2018-06-28 04:00:00 12.9 6 Este 7 Este 0 -- -- 98
2018-06-28 03:00:00 13.5 0 Calma 5 Nordeste 0 -- -- 97
2018-06-28 02:00:00 14.9 3 Sudeste 8 Nordeste 0 -- -- 95
2018-06-28 01:00:00 16.3 0 Calma 5 Este 0 -- -- 93
2018-06-28 00:00:00 17.1 3 Noroeste 6 Oeste 0 -- -- 87
2018-06-27 23:00:00 17.8 5 Nordeste 8 Nordeste 0 -- -- 87
2018-06-27 22:00:00 19.9 7 Nordeste 15 Este 0 -- -- 83
2018-06-27 21:00:00 23 9 Este 27 Sudeste 0 -- -- 67
2018-06-27 20:00:00 26.5 7 Este 24 Nordeste 0 -- -- 53
2018-06-27 19:00:00 27 14 Nordeste 33 Nordeste 0 -- -- 51
2018-06-27 18:00:00 24.1 23 Este 35 Nordeste 0 -- -- 60
2018-06-27 17:00:00 28.4 13 Noroeste 30 Oeste 0 -- -- 50
2018-06-27 16:00:00 28.2 15 Oeste 31 Oeste 0 -- -- 51
2018-06-27 15:00:00 27.7 15 Oeste 26 Oeste 0 -- -- 51
2018-06-27 14:00:00 27.4 15 Oeste 28 Oeste 0 -- -- 53
2018-06-27 13:00:00 26.2 12 Noroeste 20 Noroeste 0 -- -- 63
2018-06-27 12:00:00 25.6 8 Oeste 15 Noroeste 0 -- -- 63
2018-06-27 11:00:00 25 4 Sudoeste 12 Sudoeste 0 -- -- 63
2018-06-27 10:00:00 23.2 2 Norte 10 Este 0 -- -- 67
2018-06-27 09:00:00 19.7 3 Sudeste 7 Sudeste 0 -- -- 77
2018-06-27 08:00:00 17 5 Este 6 Este 0 -- -- 90
2018-06-27 07:00:00 15.7 3 Sudoeste 11 Sudoeste 0 -- -- 93
2018-06-27 06:00:00 16.2 5 Sudoeste 9 Sudoeste 0 -- -- 93
2018-06-27 05:00:00 15.7 2 Sudoeste 10 Oeste 0 -- -- 92
2018-06-27 04:00:00 15.9 3 Noroeste 6 Oeste 0 -- -- 96
2018-06-27 03:00:00 16.1 2 Nordeste 10 Este 0 -- -- 93
2018-06-27 02:00:00 16 6 Este 9 Este 0 -- -- 93
2018-06-27 01:00:00 17.7 0 Calma 9 Sur 0 -- -- 84
2018-06-27 00:00:00 18.7 6 Oeste 12 Norte 0 -- -- 75
2018-06-26 23:00:00 19.6 8 Noroeste 13 Oeste 0 -- -- 74
2018-06-26 22:00:00 19.8 2 Sudeste 16 Este 0 -- -- 78
2018-06-26 21:00:00 22.3 8 Este 25 Nordeste 0 -- -- 70
2018-06-26 20:00:00 22.7 14 Nordeste 46 Nordeste 0 -- -- 65
2018-06-26 19:00:00 20.4 31 Nordeste 49 Nordeste 0.4 -- -- 68
2018-06-26 18:00:00 31.7 6 Oeste 17 Oeste 0 -- -- 40
2018-06-26 17:00:00 34.1 8 Noroeste 17 Norte 0 -- -- 34
2018-06-26 16:00:00 33.3 7 Norte 15 Noroeste 0 -- -- 36
2018-06-26 15:00:00 32.3 8 Oeste 17 Oeste 0 -- -- 36
2018-06-26 14:00:00 31.8 5 Oeste 14 Noroeste 0 -- -- 42
2018-06-26 13:00:00 30 5 Sudeste 10 Sur 0 -- -- 43
2018-06-26 12:00:00 27.9 6 Este 12 Este 0 -- -- 48
2018-06-26 11:00:00 27.1 4 Este 7 Este 0 -- -- 46
2018-06-26 10:00:00 25.1 2 Este 6 Este 0 -- -- 56
2018-06-26 09:00:00 19.4 4 Este 7 Este 0 -- -- 70
2018-06-26 08:00:00 15.2 0 Calma 5 Este 0 -- -- 84
2018-06-26 07:00:00 11.2 3 Este 7 Este 0 -- -- 91
2018-06-26 06:00:00 11.5 2 Noroeste 6 Sudeste 0 -- -- 90
2018-06-26 05:00:00 12.3 3 Este 4 Este 0 -- -- 88
2018-06-26 04:00:00 14.7 3 Oeste 8 Este 0 -- -- 76
2018-06-26 03:00:00 15.8 6 Este 8 Este 0 -- -- 71
2018-06-26 02:00:00 16.4 6 Nordeste 10 Nordeste 0 -- -- 70
2018-06-26 01:00:00 18.6 11 Este 16 Este 0 -- -- 58
2018-06-26 00:00:00 19.9 5 Nordeste 26 Este 0 -- -- 56
2018-06-25 23:00:00 22.7 6 Oeste 11 Oeste 0 -- -- 49
2018-06-25 22:00:00 24.6 5 Noroeste 32 Sudoeste 0 -- -- 41
2018-06-25 21:00:00 26.6 17 Sudoeste 43 Sudoeste 0 -- -- 35
2018-06-25 20:00:00 28.3 25 Sudoeste 42 Sudoeste 0 -- -- 30
2018-06-25 19:00:00 34.7 8 Nordeste 17 Norte 0 -- -- 31
2018-06-25 18:00:00 35.2 8 Nordeste 14 Noroeste 0 -- -- 28
2018-06-25 17:00:00 34.1 10 Noroeste 17 Noroeste 0 -- -- 27
2018-06-25 16:00:00 34.8 6 Nordeste 18 Nordeste 0 -- -- 22
2018-06-25 15:00:00 33.8 5 Este 24 Norte 0 -- -- 29
2018-06-25 14:00:00 33 10 Norte 18 Norte 0 -- -- 30
2018-06-25 13:00:00 32 10 Nordeste 18 Nordeste 0 -- -- 33
2018-06-25 12:00:00 31.1 8 Nordeste 15 Nordeste 0 -- -- 37
2018-06-25 11:00:00 30.2 0 Calma 8 Oeste 0 -- -- 37
2018-06-25 10:00:00 25.5 2 Sudoeste 7 Sur 0 -- -- 52
2018-06-25 09:00:00 20.9 5 Este 12 Nordeste 0 -- -- 64
2018-06-25 08:00:00 17.5 4 Este 21 Nordeste 0 -- -- 69
2018-06-25 07:00:00 15.2 12 Nordeste 18 Nordeste 0 -- -- 69
2018-06-25 06:00:00 15 10 Nordeste 16 Nordeste 0 -- -- 71
2018-06-25 05:00:00 13.5 3 Nordeste 7 Nordeste 0 -- -- 79
2018-06-25 04:00:00 14.8 5 Nordeste 12 Este 0 -- -- 72
2018-06-25 03:00:00 14.8 7 Este 10 Este 0 -- -- 74
2018-06-25 02:00:00 16.1 7 Sudeste 15 Este 0 -- -- 69
2018-06-25 01:00:00 17.1 9 Este 15 Este 0 -- -- 67
2018-06-25 00:00:00 18.6 9 Nordeste 17 Este 0 -- -- 59
2018-06-24 23:00:00 19.7 8 Este 19 Nordeste 0 -- -- 60
2018-06-24 22:00:00 23.5 9 Nordeste 22 Nordeste 0 -- -- 52
2018-06-24 21:00:00 28.7 12 Nordeste 19 Nordeste 0 -- -- 44
2018-06-24 20:00:00 32.2 15 Nordeste 23 Nordeste 0 -- -- 35
2018-06-24 19:00:00 33.7 10 Norte 24 Noroeste 0 -- -- 28
2018-06-24 18:00:00 33.9 10 Norte 24 Norte 0 -- -- 30
2018-06-24 17:00:00 33.3 14 Norte 21 Noroeste 0 -- -- 33
2018-06-24 16:00:00 33.8 7 Noroeste 19 Oeste 0 -- -- 30
2018-06-24 15:00:00 33.4 7 Norte 19 Noroeste 0 -- -- 32
2018-06-24 14:00:00 33.8 4 Nordeste 17 Este 0 -- -- 31
2018-06-24 13:00:00 31.1 10 Este 18 Este 0 -- -- 39
2018-06-24 12:00:00 30.1 7 Este 12 Este 0 -- -- 39
2018-06-24 11:00:00 27.4 7 Este 12 Este 0 -- -- 48
2018-06-24 10:00:00 24.2 3 Este 8 Este 0 -- -- 50
2018-06-24 09:00:00 20.5 3 Este 12 Nordeste 0 -- -- 64
2018-06-24 08:00:00 16.5 4 Nordeste 7 Norte 0 -- -- 77
2018-06-24 07:00:00 12.7 4 Sudeste 13 Este 0 -- -- 85
2018-06-24 06:00:00 12.8 2 Nordeste 12 Nordeste 0 -- -- 84
2018-06-24 05:00:00 13.3 6 Este 12 Nordeste 0 -- -- 80
2018-06-24 04:00:00 14 7 Nordeste 10 Este 0 -- -- 76
2018-06-24 03:00:00 15.6 5 Este 17 Este 0 -- -- 70
2018-06-24 02:00:00 14.9 4 Nordeste 10 Este 0 -- -- 75
2018-06-24 01:00:00 15.5 6 Nordeste 17 Este 0 -- -- 74
2018-06-24 00:00:00 18.4 8 Este 22 Nordeste 0 -- -- 60
2018-06-23 23:00:00 20.6 15 Nordeste 22 Nordeste 0 -- -- 52
2018-06-23 22:00:00 21.9 13 Nordeste 17 Nordeste 0 -- -- 55
2018-06-23 21:00:00 27.2 12 Nordeste 21 Nordeste 0 -- -- 48
2018-06-23 20:00:00 30.4 14 Norte 21 Norte 0 -- -- 37
2018-06-23 19:00:00 31.6 12 Norte 20 Norte 0 -- -- 35
2018-06-23 18:00:00 32.5 12 Norte 22 Norte 0 -- -- 33
2018-06-23 17:00:00 32.4 12 Nordeste 20 Noroeste 0 -- -- 36
2018-06-23 16:00:00 31.6 6 Norte 16 Nordeste 0 -- -- 36
2018-06-23 15:00:00 30.8 9 Noroeste 17 Norte 0 -- -- 39
2018-06-23 14:00:00 30.6 10 Norte 17 Norte 0 -- -- 37
2018-06-23 13:00:00 29.9 8 Nordeste 17 Norte 0 -- -- 40
2018-06-23 12:00:00 28.6 8 Norte 14 Norte 0 -- -- 48
2018-06-23 11:00:00 25.3 10 Este 15 Nordeste 0 -- -- 58
2018-06-23 10:00:00 23.3 10 Nordeste 15 Nordeste 0 -- -- 64
2018-06-23 09:00:00 20.1 10 Nordeste 17 Nordeste 0 -- -- 73
2018-06-23 08:00:00 16.4 7 Este 12 Este 0 -- -- 87
2018-06-23 07:00:00 14 9 Este 15 Nordeste 0 -- -- 94
2018-06-23 06:00:00 15.3 10 Este 16 Este 0 -- -- 90
2018-06-23 05:00:00 14.9 9 Este 18 Norte 0 -- -- 91
2018-06-23 04:00:00 15.4 9 Nordeste 17 Norte 0 -- -- 90
2018-06-23 03:00:00 16.2 9 Nordeste 23 Nordeste 0 -- -- 88
2018-06-23 02:00:00 17.1 13 Nordeste 20 Norte 0 -- -- 85
2018-06-23 01:00:00 17.5 6 Este 21 Nordeste 0 -- -- 84
2018-06-23 00:00:00 18.4 9 Nordeste 28 Norte 0 -- -- 81
2018-06-22 23:00:00 20.7 22 Norte 29 Norte 0 -- -- 71
2018-06-22 22:00:00 22 18 Norte 25 Norte 0 -- -- 67
2018-06-22 21:00:00 24.7 15 Nordeste 31 Norte 0 -- -- 61
2018-06-22 20:00:00 28.2 21 Nordeste 32 Nordeste 0 -- -- 48
2018-06-22 19:00:00 30 21 Nordeste 30 Nordeste 0 -- -- 44
2018-06-22 18:00:00 31.5 12 Nordeste 21 Nordeste 0 -- -- 37
2018-06-22 17:00:00 30.8 9 Noroeste 28 Nordeste 0 -- -- 39
2018-06-22 16:00:00 30.1 11 Norte 21 Noroeste 0 -- -- 39
2018-06-22 15:00:00 29.5 12 Norte 18 Norte 0 -- -- 41
2018-06-22 14:00:00 29.9 5 Nordeste 15 Norte 0 -- -- 43
2018-06-22 13:00:00 28.6 5 Este 13 Nordeste 0 -- -- 45
2018-06-22 12:00:00 27.6 5 Norte 13 Norte 0 -- -- 50
2018-06-22 11:00:00 25.6 9 Norte 17 Norte 0 -- -- 54
2018-06-22 10:00:00 24.2 10 Nordeste 15 Nordeste 0 -- -- 61
2018-06-22 09:00:00 21.6 9 Nordeste 14 Nordeste 0 -- -- 71
2018-06-22 08:00:00 17.2 10 Este 17 Nordeste 0 -- -- 85
2018-06-22 07:00:00 15.8 8 Este 15 Este 0 -- -- 90
2018-06-22 06:00:00 15.5 10 Este 15 Nordeste 0 -- -- 92
2018-06-22 05:00:00 16 10 Nordeste 22 Nordeste 0 -- -- 90
2018-06-22 04:00:00 16.7 15 Norte 22 Norte -- -- -- 88
2018-06-22 03:00:00 17.6 7 Este 26 Norte 0 -- -- 86
2018-06-22 02:00:00 18.7 17 Nordeste 28 Nordeste 0 -- -- 82
2018-06-22 01:00:00 19.5 15 Nordeste 34 Norte 0 -- -- 81
2018-06-22 00:00:00 20.4 22 Norte 35 Norte 0 -- -- 77
2018-06-21 23:00:00 21.8 21 Norte 30 Norte 0 -- -- 75
2018-06-21 22:00:00 23.2 16 Norte 24 Norte 0 -- -- 68
2018-06-21 21:00:00 25.9 13 Norte 22 Norte 0 -- -- 58
2018-06-21 20:00:00 28 15 Norte 27 Norte 0 -- -- 53
2018-06-21 19:00:00 29.2 12 Noroeste 19 Noroeste 0 -- -- 47
2018-06-21 18:00:00 27.7 14 Noroeste 19 Norte 0 -- -- 54
2018-06-21 17:00:00 27.4 8 Norte 22 Norte 0 -- -- 52
2018-06-21 16:00:00 29.1 10 Oeste 21 Norte 0 -- -- 50
2018-06-21 15:00:00 28.2 11 Noroeste 18 Norte 0 -- -- 50
2018-06-21 14:00:00 27.2 11 Noroeste 22 Noroeste 0 -- -- 55
2018-06-21 13:00:00 26.4 11 Noroeste 16 Norte 0 -- -- 64
2018-06-21 12:00:00 25.1 6 Noroeste 11 Norte 0 -- -- 62
2018-06-21 11:00:00 24.5 3 Nordeste 8 Noroeste 0 -- -- 69
2018-06-21 10:00:00 22.2 3 Sur 8 Sur 0 -- -- 72
2018-06-21 09:00:00 18.7 0 Calma 7 Este 0 -- -- 87
2018-06-21 08:00:00 18.3 4 Este 10 Este 0 -- -- 93
2018-06-21 07:00:00 15.9 6 Este 12 Este 0 -- -- 97
2018-06-21 06:00:00 17.1 0 Calma 8 Sudeste 0 -- -- 97
2018-06-21 05:00:00 17.1 5 Sudeste 9 Este 0 -- -- 95
2018-06-21 04:00:00 17.3 4 Norte 10 Norte 0 -- -- 94
2018-06-21 03:00:00 18.3 5 Sudoeste 18 Sudoeste 0 -- -- 89
2018-06-21 02:00:00 19 8 Norte 24 Noroeste 0 -- -- 85
2018-06-21 01:00:00 19.8 7 Oeste 21 Noroeste 2.6 -- -- 85
2018-06-21 00:00:00 20.3 3 Este 13 Sudoeste 0 -- -- 80
2018-06-20 23:00:00 22 7 Oeste 14 Sudoeste 0 -- -- 69
2018-06-20 22:00:00 22.4 7 Norte 17 Este 0 -- -- 68
2018-06-20 21:00:00 25.4 4 Sudoeste 13 Este 0 -- -- 60
2018-06-20 20:00:00 27.4 12 Este 19 Este 0 -- -- 50
2018-06-20 19:00:00 33.4 3 Este 18 Este 0 -- -- 35
2018-06-20 18:00:00 33.2 4 Nordeste 14 Nordeste 0 -- -- 34
2018-06-20 17:00:00 30.5 5 Este 14 Este 0 -- -- 37
2018-06-20 16:00:00 30.2 9 Nordeste 20 Nordeste 0 -- -- 42
2018-06-20 15:00:00 31.6 7 Norte 15 Norte 0 -- -- 38
2018-06-20 14:00:00 30.6 9 Nordeste 16 Nordeste 0 -- -- 43
2018-06-20 13:00:00 29.8 6 Norte 16 Nordeste 0 -- -- 41
2018-06-20 12:00:00 29.1 4 Este 9 Este 0 -- -- 48
2018-06-20 11:00:00 28.5 3 Este 9 Nordeste 0 -- -- 45
2018-06-20 10:00:00 26 3 Este 6 Sudeste 0 -- -- 52
2018-06-20 09:00:00 22.9 0 Calma 6 Este 0 -- -- 68
2018-06-20 08:00:00 15.8 4 Este 8 Este 0 -- -- 90
2018-06-20 07:00:00 12.6 6 Este 8 Este 0 -- -- 97
2018-06-20 06:00:00 13 5 Este 12 Sudeste 0 -- -- 96
2018-06-20 05:00:00 12.6 3 Este 6 Este 0 -- -- 96
2018-06-20 04:00:00 13.2 3 Este 7 Este 0 -- -- 96
2018-06-20 03:00:00 13.8 4 Este 7 Este 0 -- -- 94
2018-06-20 02:00:00 14.7 8 Este 10 Este 0 -- -- 92
2018-06-20 01:00:00 15.4 6 Este 10 Este 0 -- -- 92
2018-06-20 00:00:00 17 3 Sudeste 6 Este 0 -- -- 86
2018-06-19 23:00:00 18.6 3 Este 8 Oeste 0 -- -- 80
2018-06-19 22:00:00 22.4 0 Calma 9 Noroeste 0 -- -- 71
2018-06-19 21:00:00 26.6 8 Noroeste 13 Noroeste 0 -- -- 53
2018-06-19 20:00:00 29.4 8 Noroeste 17 Oeste 0 -- -- 40
2018-06-19 19:00:00 30.1 8 Noroeste 15 Oeste 0 -- -- 40
2018-06-19 18:00:00 29.7 6 Norte 18 Noroeste 0 -- -- 39
2018-06-19 17:00:00 29.3 8 Este 19 Nordeste 0 -- -- 41
2018-06-19 16:00:00 28.7 7 Nordeste 14 Nordeste 0 -- -- 40
2018-06-19 15:00:00 28 6 Nordeste 15 Nordeste 0 -- -- 45
2018-06-19 14:00:00 26.9 5 Norte 22 Nordeste 0 -- -- 44
2018-06-19 13:00:00 24.7 12 Este 21 Nordeste 0 -- -- 49
2018-06-19 12:00:00 22.9 13 Nordeste 20 Este 0 -- -- 54
2018-06-19 11:00:00 21.5 12 Nordeste 18 Nordeste 0 -- -- 56
2018-06-19 10:00:00 19.6 9 Nordeste 19 Nordeste 0 -- -- 62
2018-06-19 09:00:00 16.9 12 Nordeste 23 Nordeste 0 -- -- 72
2018-06-19 08:00:00 13.5 7 Nordeste 22 Nordeste 0 -- -- 85
2018-06-19 07:00:00 10.9 12 Nordeste 22 Norte 0 -- -- 92
2018-06-19 06:00:00 10.3 6 Este 13 Este 0 -- -- 96
2018-06-19 05:00:00 11 5 Este 19 Este 0 -- -- 92
2018-06-19 04:00:00 12 4 Este 21 Norte 0 -- -- 90
2018-06-19 03:00:00 12.4 6 Nordeste 20 Norte 0 -- -- 89
2018-06-19 02:00:00 13.3 12 Norte 18 Nordeste 0 -- -- 87
2018-06-19 01:00:00 13.4 7 Este 19 Nordeste 0 -- -- 87
2018-06-19 00:00:00 15.4 14 Nordeste 37 Norte 0 -- -- 78
2018-06-18 23:00:00 16.7 26 Norte 43 Norte 0 -- -- 74
2018-06-18 22:00:00 18.6 25 Norte 42 Norte 0 -- -- 69
2018-06-18 21:00:00 22.1 21 Norte 38 Nordeste 0 -- -- 59
2018-06-18 20:00:00 24 27 Norte 39 Norte 0 -- -- 54
2018-06-18 19:00:00 25.4 24 Norte 38 Nordeste 0 -- -- 51
2018-06-18 18:00:00 26.1 24 Norte 33 Norte 0 -- -- 46
2018-06-18 17:00:00 26.6 22 Nordeste 30 Norte 0 -- -- 44
2018-06-18 16:00:00 26.6 14 Norte 30 Norte 0 -- -- 45
2018-06-18 15:00:00 25.3 19 Norte 30 Nordeste 0 -- -- 44
2018-06-18 14:00:00 25 21 Nordeste 32 Nordeste 0 -- -- 47
2018-06-18 13:00:00 24.7 17 Norte 28 Nordeste 0 -- -- 51
2018-06-18 12:00:00 24.4 15 Nordeste 30 Nordeste 0 -- -- 38
2018-06-18 11:00:00 22.3 22 Nordeste 35 Nordeste 0 -- -- 44
2018-06-18 10:00:00 21.1 16 Nordeste 22 Nordeste 0 -- -- 55
2018-06-18 09:00:00 16.8 5 Sur 8 Sur 0 -- -- 69
2018-06-18 08:00:00 14.1 4 Nordeste 9 Este 0 -- -- 79
2018-06-18 07:00:00 8.7 4 Este 10 Sur 0 -- -- 95
2018-06-18 06:00:00 9.3 4 Sudeste 11 Este 0 -- -- 94
2018-06-18 05:00:00 11.5 4 Sudeste 12 Norte 0 -- -- 86
2018-06-18 04:00:00 10.8 7 Nordeste 9 Nordeste 0 -- -- 93
2018-06-18 03:00:00 11.9 3 Sudeste 13 Este 0 -- -- 88
2018-06-18 02:00:00 12.3 8 Nordeste 14 Este 0 -- -- 87
2018-06-18 01:00:00 14.7 5 Nordeste 21 Nordeste 0 -- -- 76
2018-06-18 00:00:00 14.4 12 Nordeste 18 Nordeste 0 -- -- 77
2018-06-17 23:00:00 16 13 Nordeste 18 Norte 0 -- -- 70
2018-06-17 22:00:00 17.2 12 Nordeste 15 Nordeste 0 -- -- 68
2018-06-17 21:00:00 24.2 10 Nordeste 21 Norte 0 -- -- 49
2018-06-17 20:00:00 25.9 12 Norte 23 Nordeste 0 -- -- 40
2018-06-17 19:00:00 26.4 12 Norte 20 Norte 0 -- -- 39
2018-06-17 18:00:00 26.2 14 Norte 24 Noroeste 0 -- -- 35
2018-06-17 17:00:00 26.1 12 Norte 26 Nordeste 0 -- -- 30
2018-06-17 16:00:00 25.6 12 Norte 27 Norte 0 -- -- 41
2018-06-17 15:00:00 24.4 10 Norte 21 Norte 0 -- -- 43
2018-06-17 14:00:00 24.3 13 Norte 23 Nordeste 0 -- -- 51
2018-06-17 13:00:00 24 13 Norte 24 Norte 0 -- -- 50
2018-06-17 12:00:00 23.7 9 Norte 21 Nordeste 0 -- -- 50
2018-06-17 11:00:00 22.4 9 Nordeste 14 Nordeste 0 -- -- 56
2018-06-17 10:00:00 20 6 Nordeste 13 Nordeste 0 -- -- 60
2018-06-17 09:00:00 16.2 8 Nordeste 16 Este 0 -- -- 70
2018-06-17 08:00:00 12.6 12 Este 17 Este 0 -- -- 79
2018-06-17 07:00:00 10.3 8 Este 18 Norte 0 -- -- 85
2018-06-17 06:00:00 9.8 4 Este 15 Nordeste 0 -- -- 88
2018-06-17 05:00:00 11 4 Este 19 Nordeste 0 -- -- 84
2018-06-17 04:00:00 10.7 6 Nordeste 14 Nordeste 0 -- -- 85
2018-06-17 03:00:00 10.5 9 Nordeste 17 Este 0 -- -- 86
2018-06-17 02:00:00 12.6 8 Este 19 Nordeste 0 -- -- 78
2018-06-17 01:00:00 11.9 10 Este 17 Este 0 -- -- 88
2018-06-17 00:00:00 13.6 8 Este 17 Nordeste 0 -- -- 81